sensor_id;sensor_type;location;lat;lon;timestamp;P1;durP1;ratioP1;P2;durP2;ratioP2
37477;SDS011;23334;54.316;10.182;2023-04-01T00:00:28;12.80;;;8.27;;
37477;SDS011;23334;54.316;10.182;2023-04-01T00:02:54;11.03;;;7.17;;
37477;SDS011;23334;54.316;10.182;2023-04-01T00:05:19;11.80;;;6.33;;
37477;SDS011;23334;54.316;10.182;2023-04-01T00:07:45;11.77;;;6.83;;
37477;SDS011;23334;54.316;10.182;2023-04-01T00:10:11;9.20;;;5.17;;
37477;SDS011;23334;54.316;10.182;2023-04-01T00:12:38;13.07;;;6.50;;
37477;SDS011;23334;54.316;10.182;2023-04-01T00:15:06;8.67;;;5.67;;
37477;SDS011;23334;54.316;10.182;2023-04-01T00:17:33;11.50;;;6.43;;
37477;SDS011;23334;54.316;10.182;2023-04-01T00:19:59;10.50;;;6.17;;
37477;SDS011;23334;54.316;10.182;2023-04-01T00:22:25;10.70;;;6.03;;
37477;SDS011;23334;54.316;10.182;2023-04-01T00:24:51;8.90;;;6.20;;
37477;SDS011;23334;54.316;10.182;2023-04-01T00:27:17;10.00;;;5.10;;
37477;SDS011;23334;54.316;10.182;2023-04-01T00:29:44;5.93;;;4.67;;
37477;SDS011;23334;54.316;10.182;2023-04-01T00:32:11;7.23;;;5.37;;
37477;SDS011;23334;54.316;10.182;2023-04-01T00:34:36;18.00;;;5.43;;
37477;SDS011;23334;54.316;10.182;2023-04-01T00:37:02;5.57;;;4.53;;
37477;SDS011;23334;54.316;10.182;2023-04-01T00:39:29;10.27;;;4.17;;
37477;SDS011;23334;54.316;10.182;2023-04-01T00:41:56;6.57;;;4.33;;
37477;SDS011;23334;54.316;10.182;2023-04-01T00:44:26;4.50;;;4.07;;
37477;SDS011;23334;54.316;10.182;2023-04-01T00:46:53;4.60;;;4.10;;
37477;SDS011;23334;54.316;10.182;2023-04-01T00:49:25;5.47;;;3.83;;
37477;SDS011;23334;54.316;10.182;2023-04-01T00:51:54;5.37;;;3.90;;
37477;SDS011;23334;54.316;10.182;2023-04-01T00:54:22;5.40;;;3.60;;
37477;SDS011;23334;54.316;10.182;2023-04-01T00:57:00;3.87;;;3.40;;
37477;SDS011;23334;54.316;10.182;2023-04-01T00:59:40;3.90;;;3.60;;
37477;SDS011;23334;54.316;10.182;2023-04-01T01:02:10;7.13;;;4.10;;
37477;SDS011;23334;54.316;10.182;2023-04-01T01:04:38;6.00;;;4.40;;
37477;SDS011;23334;54.316;10.182;2023-04-01T01:15:36;6.63;;;4.03;;
37477;SDS011;23334;54.316;10.182;2023-04-01T01:18:35;5.43;;;3.70;;
37477;SDS011;23334;54.316;10.182;2023-04-01T01:21:16;5.67;;;4.33;;
37477;SDS011;23334;54.316;10.182;2023-04-01T01:24:30;3.67;;;3.37;;
37477;SDS011;23334;54.316;10.182;2023-04-01T01:27:00;3.10;;;2.67;;
37477;SDS011;23334;54.316;10.182;2023-04-01T01:29:54;3.73;;;3.43;;
37477;SDS011;23334;54.316;10.182;2023-04-01T01:35:38;5.70;;;3.70;;
37477;SDS011;23334;54.316;10.182;2023-04-01T01:38:10;5.53;;;2.93;;
37477;SDS011;23334;54.316;10.182;2023-04-01T01:40:41;3.30;;;3.07;;
37477;SDS011;23334;54.316;10.182;2023-04-01T01:43:10;3.87;;;3.57;;
37477;SDS011;23334;54.316;10.182;2023-04-01T01:45:40;3.17;;;2.80;;
37477;SDS011;23334;54.316;10.182;2023-04-01T01:48:18;4.53;;;3.13;;
37477;SDS011;23334;54.316;10.182;2023-04-01T01:50:45;2.63;;;2.40;;
37477;SDS011;23334;54.316;10.182;2023-04-01T01:53:12;15.07;;;3.63;;
37477;SDS011;23334;54.316;10.182;2023-04-01T01:55:42;4.87;;;3.03;;
37477;SDS011;23334;54.316;10.182;2023-04-01T01:58:22;3.40;;;2.97;;
37477;SDS011;23334;54.316;10.182;2023-04-01T02:01:00;2.90;;;2.70;;
37477;SDS011;23334;54.316;10.182;2023-04-01T02:03:32;2.70;;;2.43;;
37477;SDS011;23334;54.316;10.182;2023-04-01T02:06:01;2.70;;;2.30;;
37477;SDS011;23334;54.316;10.182;2023-04-01T02:08:35;3.30;;;2.60;;
37477;SDS011;23334;54.316;10.182;2023-04-01T02:11:11;2.87;;;2.57;;
37477;SDS011;23334;54.316;10.182;2023-04-01T02:13:41;2.60;;;2.40;;
37477;SDS011;23334;54.316;10.182;2023-04-01T02:16:18;2.67;;;2.43;;
37477;SDS011;23334;54.316;10.182;2023-04-01T02:18:48;4.97;;;2.63;;
37477;SDS011;23334;54.316;10.182;2023-04-01T02:21:18;3.70;;;2.60;;
37477;SDS011;23334;54.316;10.182;2023-04-01T02:23:46;2.17;;;1.93;;
37477;SDS011;23334;54.316;10.182;2023-04-01T02:26:12;1.80;;;1.70;;
37477;SDS011;23334;54.316;10.182;2023-04-01T02:28:39;2.77;;;2.03;;
37477;SDS011;23334;54.316;10.182;2023-04-01T02:31:06;2.30;;;1.30;;
37477;SDS011;23334;54.316;10.182;2023-04-01T02:33:35;3.77;;;1.10;;
37477;SDS011;23334;54.316;10.182;2023-04-01T02:36:02;1.20;;;1.10;;
37477;SDS011;23334;54.316;10.182;2023-04-01T02:38:28;3.43;;;1.53;;
37477;SDS011;23334;54.316;10.182;2023-04-01T02:40:58;5.03;;;1.37;;
37477;SDS011;23334;54.316;10.182;2023-04-01T02:43:25;1.30;;;1.20;;
37477;SDS011;23334;54.316;10.182;2023-04-01T02:45:52;3.10;;;1.10;;
37477;SDS011;23334;54.316;10.182;2023-04-01T02:48:18;1.37;;;0.70;;
37477;SDS011;23334;54.316;10.182;2023-04-01T02:50:43;2.03;;;1.07;;
37477;SDS011;23334;54.316;10.182;2023-04-01T02:53:09;1.03;;;1.03;;
37477;SDS011;23334;54.316;10.182;2023-04-01T02:55:34;0.67;;;0.63;;
37477;SDS011;23334;54.316;10.182;2023-04-01T02:58:00;0.80;;;0.70;;
37477;SDS011;23334;54.316;10.182;2023-04-01T03:00:26;1.80;;;0.70;;
37477;SDS011;23334;54.316;10.182;2023-04-01T03:02:52;1.20;;;1.10;;
37477;SDS011;23334;54.316;10.182;2023-04-01T03:05:17;8.43;;;0.63;;
37477;SDS011;23334;54.316;10.182;2023-04-01T03:07:43;3.03;;;1.00;;
37477;SDS011;23334;54.316;10.182;2023-04-01T03:10:09;1.10;;;1.00;;
37477;SDS011;23334;54.316;10.182;2023-04-01T03:12:35;1.47;;;0.80;;
37477;SDS011;23334;54.316;10.182;2023-04-01T03:15:01;0.83;;;0.70;;
37477;SDS011;23334;54.316;10.182;2023-04-01T03:17:27;1.57;;;0.50;;
37477;SDS011;23334;54.316;10.182;2023-04-01T03:19:52;1.43;;;0.93;;
37477;SDS011;23334;54.316;10.182;2023-04-01T03:22:18;1.30;;;0.80;;
37477;SDS011;23334;54.316;10.182;2023-04-01T03:27:19;2.77;;;1.10;;
37477;SDS011;23334;54.316;10.182;2023-04-01T03:29:45;0.80;;;0.70;;
37477;SDS011;23334;54.316;10.182;2023-04-01T03:32:10;2.17;;;0.57;;
37477;SDS011;23334;54.316;10.182;2023-04-01T03:34:36;0.80;;;0.60;;
37477;SDS011;23334;54.316;10.182;2023-04-01T03:37:01;0.67;;;0.60;;
37477;SDS011;23334;54.316;10.182;2023-04-01T03:39:27;1.23;;;0.53;;
37477;SDS011;23334;54.316;10.182;2023-04-01T03:41:52;0.87;;;0.57;;
37477;SDS011;23334;54.316;10.182;2023-04-01T03:44:19;2.93;;;0.73;;
37477;SDS011;23334;54.316;10.182;2023-04-01T03:46:44;1.00;;;0.80;;
37477;SDS011;23334;54.316;10.182;2023-04-01T03:49:10;0.77;;;0.50;;
37477;SDS011;23334;54.316;10.182;2023-04-01T03:51:43;0.60;;;0.50;;
37477;SDS011;23334;54.316;10.182;2023-04-01T03:54:09;2.00;;;0.80;;
37477;SDS011;23334;54.316;10.182;2023-04-01T03:56:35;2.17;;;1.10;;
37477;SDS011;23334;54.316;10.182;2023-04-01T03:59:02;1.13;;;0.90;;
37477;SDS011;23334;54.316;10.182;2023-04-01T04:01:29;1.00;;;1.00;;
37477;SDS011;23334;54.316;10.182;2023-04-01T04:03:55;1.73;;;0.90;;
37477;SDS011;23334;54.316;10.182;2023-04-01T04:06:22;3.13;;;0.90;;
37477;SDS011;23334;54.316;10.182;2023-04-01T04:08:49;11.70;;;1.00;;
37477;SDS011;23334;54.316;10.182;2023-04-01T04:11:15;2.13;;;1.17;;
37477;SDS011;23334;54.316;10.182;2023-04-01T04:13:41;2.10;;;0.90;;
37477;SDS011;23334;54.316;10.182;2023-04-01T04:16:08;2.03;;;1.27;;
37477;SDS011;23334;54.316;10.182;2023-04-01T04:18:34;1.03;;;1.03;;
37477;SDS011;23334;54.316;10.182;2023-04-01T04:21:00;1.20;;;1.10;;
37477;SDS011;23334;54.316;10.182;2023-04-01T04:23:26;2.40;;;0.90;;
37477;SDS011;23334;54.316;10.182;2023-04-01T04:26:00;1.53;;;0.80;;
37477;SDS011;23334;54.316;10.182;2023-04-01T04:28:30;2.93;;;1.27;;
37477;SDS011;23334;54.316;10.182;2023-04-01T04:30:57;1.37;;;1.27;;
37477;SDS011;23334;54.316;10.182;2023-04-01T04:33:22;1.80;;;0.80;;
37477;SDS011;23334;54.316;10.182;2023-04-01T04:35:49;1.17;;;1.07;;
37477;SDS011;23334;54.316;10.182;2023-04-01T04:38:15;1.10;;;1.00;;
37477;SDS011;23334;54.316;10.182;2023-04-01T04:40:41;2.70;;;0.80;;
37477;SDS011;23334;54.316;10.182;2023-04-01T04:43:09;1.50;;;1.00;;
37477;SDS011;23334;54.316;10.182;2023-04-01T04:45:36;4.73;;;1.00;;
37477;SDS011;23334;54.316;10.182;2023-04-01T04:48:01;4.73;;;1.90;;
37477;SDS011;23334;54.316;10.182;2023-04-01T04:50:27;1.13;;;1.03;;
37477;SDS011;23334;54.316;10.182;2023-04-01T04:52:53;1.03;;;1.00;;
37477;SDS011;23334;54.316;10.182;2023-04-01T04:55:21;6.83;;;1.00;;
37477;SDS011;23334;54.316;10.182;2023-04-01T04:57:46;1.20;;;1.10;;
37477;SDS011;23334;54.316;10.182;2023-04-01T05:00:12;2.17;;;0.80;;
37477;SDS011;23334;54.316;10.182;2023-04-01T05:02:37;3.03;;;1.17;;
37477;SDS011;23334;54.316;10.182;2023-04-01T05:05:03;1.20;;;1.20;;
37477;SDS011;23334;54.316;10.182;2023-04-01T05:07:30;1.13;;;1.03;;
37477;SDS011;23334;54.316;10.182;2023-04-01T05:09:56;0.97;;;0.90;;
37477;SDS011;23334;54.316;10.182;2023-04-01T05:12:22;2.07;;;0.97;;
37477;SDS011;23334;54.316;10.182;2023-04-01T05:14:47;1.20;;;1.10;;
37477;SDS011;23334;54.316;10.182;2023-04-01T05:17:13;4.07;;;1.13;;
37477;SDS011;23334;54.316;10.182;2023-04-01T05:19:39;2.60;;;0.73;;
37477;SDS011;23334;54.316;10.182;2023-04-01T05:22:05;0.90;;;0.80;;
37477;SDS011;23334;54.316;10.182;2023-04-01T05:24:31;1.00;;;1.00;;
37477;SDS011;23334;54.316;10.182;2023-04-01T05:26:57;1.47;;;1.07;;
37477;SDS011;23334;54.316;10.182;2023-04-01T05:29:24;3.37;;;0.83;;
37477;SDS011;23334;54.316;10.182;2023-04-01T05:31:51;2.40;;;1.10;;
37477;SDS011;23334;54.316;10.182;2023-04-01T05:34:16;1.97;;;0.90;;
37477;SDS011;23334;54.316;10.182;2023-04-01T05:36:42;4.87;;;1.30;;
37477;SDS011;23334;54.316;10.182;2023-04-01T05:39:08;2.77;;;1.17;;
37477;SDS011;23334;54.316;10.182;2023-04-01T05:41:37;1.30;;;1.20;;
37477;SDS011;23334;54.316;10.182;2023-04-01T05:44:04;3.03;;;1.07;;
37477;SDS011;23334;54.316;10.182;2023-04-01T05:46:30;1.50;;;1.40;;
37477;SDS011;23334;54.316;10.182;2023-04-01T05:48:56;2.40;;;1.20;;
37477;SDS011;23334;54.316;10.182;2023-04-01T05:51:22;1.67;;;1.10;;
37477;SDS011;23334;54.316;10.182;2023-04-01T05:53:48;7.33;;;1.60;;
37477;SDS011;23334;54.316;10.182;2023-04-01T05:56:14;1.43;;;0.83;;
37477;SDS011;23334;54.316;10.182;2023-04-01T05:58:40;2.33;;;1.23;;
37477;SDS011;23334;54.316;10.182;2023-04-01T06:01:07;2.67;;;1.40;;
37477;SDS011;23334;54.316;10.182;2023-04-01T06:03:33;1.80;;;1.30;;
37477;SDS011;23334;54.316;10.182;2023-04-01T06:05:59;2.50;;;1.10;;
37477;SDS011;23334;54.316;10.182;2023-04-01T06:08:30;2.37;;;1.20;;
37477;SDS011;23334;54.316;10.182;2023-04-01T06:11:00;1.67;;;1.40;;
37477;SDS011;23334;54.316;10.182;2023-04-01T06:13:58;2.27;;;1.33;;
37477;SDS011;23334;54.316;10.182;2023-04-01T06:16:49;1.13;;;1.03;;
37477;SDS011;23334;54.316;10.182;2023-04-01T06:39:37;1.27;;;1.00;;
37477;SDS011;23334;54.316;10.182;2023-04-01T06:42:24;1.33;;;1.23;;
37477;SDS011;23334;54.316;10.182;2023-04-01T06:48:14;0.87;;;0.87;;
37477;SDS011;23334;54.316;10.182;2023-04-01T06:51:02;2.67;;;1.33;;
37477;SDS011;23334;54.316;10.182;2023-04-01T06:53:47;5.50;;;1.27;;
37477;SDS011;23334;54.316;10.182;2023-04-01T06:56:27;2.87;;;1.20;;
37477;SDS011;23334;54.316;10.182;2023-04-01T06:58:58;1.00;;;0.90;;
37477;SDS011;23334;54.316;10.182;2023-04-01T07:01:32;1.00;;;0.90;;
37477;SDS011;23334;54.316;10.182;2023-04-01T07:04:05;6.77;;;1.37;;
37477;SDS011;23334;54.316;10.182;2023-04-01T07:06:57;1.53;;;1.13;;
37477;SDS011;23334;54.316;10.182;2023-04-01T07:09:33;1.07;;;0.97;;
37477;SDS011;23334;54.316;10.182;2023-04-01T07:12:02;9.67;;;1.07;;
37477;SDS011;23334;54.316;10.182;2023-04-01T07:14:58;1.47;;;1.37;;
37477;SDS011;23334;54.316;10.182;2023-04-01T07:17:30;1.40;;;0.90;;
37477;SDS011;23334;54.316;10.182;2023-04-01T07:20:02;1.20;;;1.10;;
37477;SDS011;23334;54.316;10.182;2023-04-01T07:22:51;10.63;;;1.50;;
37477;SDS011;23334;54.316;10.182;2023-04-01T07:25:21;7.53;;;1.40;;
37477;SDS011;23334;54.316;10.182;2023-04-01T07:27:50;2.10;;;1.03;;
37477;SDS011;23334;54.316;10.182;2023-04-01T07:30:23;4.37;;;1.17;;
37477;SDS011;23334;54.316;10.182;2023-04-01T07:38:37;1.23;;;0.90;;
37477;SDS011;23334;54.316;10.182;2023-04-01T07:43:59;2.53;;;1.43;;
37477;SDS011;23334;54.316;10.182;2023-04-01T07:55:16;1.43;;;1.00;;
37477;SDS011;23334;54.316;10.182;2023-04-01T08:01:20;2.37;;;1.57;;
37477;SDS011;23334;54.316;10.182;2023-04-01T08:17:55;2.17;;;1.80;;
37477;SDS011;23334;54.316;10.182;2023-04-01T08:21:02;1.70;;;1.43;;
37477;SDS011;23334;54.316;10.182;2023-04-01T08:23:30;2.50;;;2.20;;
37477;SDS011;23334;54.316;10.182;2023-04-01T08:26:08;6.37;;;2.83;;
37477;SDS011;23334;54.316;10.182;2023-04-01T08:31:13;3.10;;;1.80;;
37477;SDS011;23334;54.316;10.182;2023-04-01T08:33:58;3.00;;;1.63;;
37477;SDS011;23334;54.316;10.182;2023-04-01T08:36:31;6.00;;;3.07;;
37477;SDS011;23334;54.316;10.182;2023-04-01T08:39:07;4.30;;;1.93;;
37477;SDS011;23334;54.316;10.182;2023-04-01T08:44:42;2.80;;;2.50;;
37477;SDS011;23334;54.316;10.182;2023-04-01T08:52:53;2.10;;;1.90;;
37477;SDS011;23334;54.316;10.182;2023-04-01T08:56:05;3.50;;;1.40;;
37477;SDS011;23334;54.316;10.182;2023-04-01T09:01:44;3.27;;;2.63;;
37477;SDS011;23334;54.316;10.182;2023-04-01T09:07:40;5.60;;;3.73;;
37477;SDS011;23334;54.316;10.182;2023-04-01T09:15:48;4.33;;;3.07;;
37477;SDS011;23334;54.316;10.182;2023-04-01T09:29:28;8.40;;;4.00;;
37477;SDS011;23334;54.316;10.182;2023-04-01T09:40:47;3.63;;;2.90;;
37477;SDS011;23334;54.316;10.182;2023-04-01T09:43:26;5.40;;;3.13;;
37477;SDS011;23334;54.316;10.182;2023-04-01T09:46:07;7.23;;;3.50;;
37477;SDS011;23334;54.316;10.182;2023-04-01T09:48:58;5.80;;;3.63;;
37477;SDS011;23334;54.316;10.182;2023-04-01T09:51:50;5.07;;;2.90;;
37477;SDS011;23334;54.316;10.182;2023-04-01T09:54:25;5.83;;;4.07;;
37477;SDS011;23334;54.316;10.182;2023-04-01T10:08:49;8.17;;;3.97;;
37477;SDS011;23334;54.316;10.182;2023-04-01T10:17:24;6.33;;;3.70;;
37477;SDS011;23334;54.316;10.182;2023-04-01T10:20:22;10.83;;;4.57;;
37477;SDS011;23334;54.316;10.182;2023-04-01T10:28:35;4.70;;;3.23;;
37477;SDS011;23334;54.316;10.182;2023-04-01T10:31:34;9.87;;;3.40;;
37477;SDS011;23334;54.316;10.182;2023-04-01T10:40:26;4.70;;;3.60;;
37477;SDS011;23334;54.316;10.182;2023-04-01T10:52:22;6.23;;;4.10;;
37477;SDS011;23334;54.316;10.182;2023-04-01T10:58:32;10.73;;;4.50;;
37477;SDS011;23334;54.316;10.182;2023-04-01T11:04:32;9.97;;;4.80;;
37477;SDS011;23334;54.316;10.182;2023-04-01T11:07:36;10.53;;;4.33;;
37477;SDS011;23334;54.316;10.182;2023-04-01T11:10:24;5.23;;;4.10;;
37477;SDS011;23334;54.316;10.182;2023-04-01T11:24:21;4.90;;;4.40;;
37477;SDS011;23334;54.316;10.182;2023-04-01T11:27:18;8.07;;;3.50;;
37477;SDS011;23334;54.316;10.182;2023-04-01T11:35:52;5.80;;;3.30;;
37477;SDS011;23334;54.316;10.182;2023-04-01T11:38:47;4.47;;;3.60;;
37477;SDS011;23334;54.316;10.182;2023-04-01T11:41:43;5.30;;;3.20;;
37477;SDS011;23334;54.316;10.182;2023-04-01T11:44:19;8.70;;;4.10;;
37477;SDS011;23334;54.316;10.182;2023-04-01T11:53:10;6.00;;;4.10;;
37477;SDS011;23334;54.316;10.182;2023-04-01T11:55:56;5.30;;;3.83;;
37477;SDS011;23334;54.316;10.182;2023-04-01T12:01:36;5.03;;;3.37;;
37477;SDS011;23334;54.316;10.182;2023-04-01T12:10:47;3.70;;;2.93;;
37477;SDS011;23334;54.316;10.182;2023-04-01T12:16:28;4.80;;;2.87;;
37477;SDS011;23334;54.316;10.182;2023-04-01T12:19:03;9.43;;;3.27;;
37477;SDS011;23334;54.316;10.182;2023-04-01T12:21:37;15.47;;;3.10;;
37477;SDS011;23334;54.316;10.182;2023-04-01T12:32:45;4.80;;;2.50;;
37477;SDS011;23334;54.316;10.182;2023-04-01T12:35:34;6.80;;;2.20;;
37477;SDS011;23334;54.316;10.182;2023-04-01T12:46:41;11.83;;;3.20;;
37477;SDS011;23334;54.316;10.182;2023-04-01T12:49:20;6.20;;;2.50;;
37477;SDS011;23334;54.316;10.182;2023-04-01T12:52:16;9.47;;;2.00;;
37477;SDS011;23334;54.316;10.182;2023-04-01T13:01:09;9.07;;;3.00;;
37477;SDS011;23334;54.316;10.182;2023-04-01T13:06:36;4.73;;;2.10;;
37477;SDS011;23334;54.316;10.182;2023-04-01T13:09:34;6.60;;;2.83;;
37477;SDS011;23334;54.316;10.182;2023-04-01T13:12:20;4.07;;;2.97;;
37477;SDS011;23334;54.316;10.182;2023-04-01T13:15:20;3.73;;;2.13;;
37477;SDS011;23334;54.316;10.182;2023-04-01T13:20:49;2.13;;;1.90;;
37477;SDS011;23334;54.316;10.182;2023-04-01T13:23:24;2.97;;;2.60;;
37477;SDS011;23334;54.316;10.182;2023-04-01T13:28:59;4.07;;;2.50;;
37477;SDS011;23334;54.316;10.182;2023-04-01T13:31:55;5.13;;;3.00;;
37477;SDS011;23334;54.316;10.182;2023-04-01T13:34:39;13.90;;;2.63;;
37477;SDS011;23334;54.316;10.182;2023-04-01T13:42:49;2.40;;;1.90;;
37477;SDS011;23334;54.316;10.182;2023-04-01T13:45:38;5.57;;;2.57;;
37477;SDS011;23334;54.316;10.182;2023-04-01T13:48:33;4.57;;;2.57;;
37477;SDS011;23334;54.316;10.182;2023-04-01T13:54:15;11.50;;;3.70;;
37477;SDS011;23334;54.316;10.182;2023-04-01T13:56:57;3.30;;;2.40;;
37477;SDS011;23334;54.316;10.182;2023-04-01T14:11:10;5.20;;;1.80;;
37477;SDS011;23334;54.316;10.182;2023-04-01T14:13:50;5.93;;;2.03;;
37477;SDS011;23334;54.316;10.182;2023-04-01T14:25:20;1.87;;;1.40;;
37477;SDS011;23334;54.316;10.182;2023-04-01T14:28:15;1.70;;;1.60;;
37477;SDS011;23334;54.316;10.182;2023-04-01T14:31:23;1.00;;;0.90;;
37477;SDS011;23334;54.316;10.182;2023-04-01T14:34:05;3.67;;;1.77;;
37477;SDS011;23334;54.316;10.182;2023-04-01T14:36:56;3.10;;;2.07;;
37477;SDS011;23334;54.316;10.182;2023-04-01T14:42:54;9.07;;;2.20;;
37477;SDS011;23334;54.316;10.182;2023-04-01T14:48:28;1.63;;;1.33;;
37477;SDS011;23334;54.316;10.182;2023-04-01T14:53:56;4.80;;;1.83;;
37477;SDS011;23334;54.316;10.182;2023-04-01T14:56:49;1.50;;;1.40;;
37477;SDS011;23334;54.316;10.182;2023-04-01T14:59:27;4.37;;;1.70;;
37477;SDS011;23334;54.316;10.182;2023-04-01T15:02:06;1.80;;;1.30;;
37477;SDS011;23334;54.316;10.182;2023-04-01T15:08:03;3.30;;;1.37;;
37477;SDS011;23334;54.316;10.182;2023-04-01T15:10:51;3.40;;;2.33;;
37477;SDS011;23334;54.316;10.182;2023-04-01T15:16:06;2.23;;;2.03;;
37477;SDS011;23334;54.316;10.182;2023-04-01T15:21:50;4.23;;;1.47;;
37477;SDS011;23334;54.316;10.182;2023-04-01T15:27:59;2.33;;;1.10;;
37477;SDS011;23334;54.316;10.182;2023-04-01T15:36:16;4.47;;;0.90;;
37477;SDS011;23334;54.316;10.182;2023-04-01T15:39:14;2.70;;;1.37;;
37477;SDS011;23334;54.316;10.182;2023-04-01T15:41:52;0.90;;;0.80;;
37477;SDS011;23334;54.316;10.182;2023-04-01T15:49:52;2.07;;;1.20;;
37477;SDS011;23334;54.316;10.182;2023-04-01T15:52:43;5.23;;;1.40;;
37477;SDS011;23334;54.316;10.182;2023-04-01T15:55:20;5.63;;;1.20;;
37477;SDS011;23334;54.316;10.182;2023-04-01T16:06:59;3.10;;;1.37;;
37477;SDS011;23334;54.316;10.182;2023-04-01T16:12:47;1.57;;;1.00;;
37477;SDS011;23334;54.316;10.182;2023-04-01T16:18:39;3.37;;;0.97;;
37477;SDS011;23334;54.316;10.182;2023-04-01T16:23:59;2.07;;;0.87;;
37477;SDS011;23334;54.316;10.182;2023-04-01T16:26:53;3.57;;;1.23;;
37477;SDS011;23334;54.316;10.182;2023-04-01T16:32:33;1.60;;;0.80;;
37477;SDS011;23334;54.316;10.182;2023-04-01T16:38:16;2.83;;;1.13;;
37477;SDS011;23334;54.316;10.182;2023-04-01T16:40:52;1.13;;;1.03;;
37477;SDS011;23334;54.316;10.182;2023-04-01T16:43:42;2.90;;;1.00;;
37477;SDS011;23334;54.316;10.182;2023-04-01T16:51:46;1.20;;;0.90;;
37477;SDS011;23334;54.316;10.182;2023-04-01T16:54:18;2.23;;;1.03;;
37477;SDS011;23334;54.316;10.182;2023-04-01T16:59:36;1.20;;;1.00;;
37477;SDS011;23334;54.316;10.182;2023-04-01T17:02:16;6.77;;;1.43;;
37477;SDS011;23334;54.316;10.182;2023-04-01T17:09:58;2.20;;;1.23;;
37477;SDS011;23334;54.316;10.182;2023-04-01T17:13:01;2.50;;;0.97;;
37477;SDS011;23334;54.316;10.182;2023-04-01T17:15:57;3.63;;;1.17;;
37477;SDS011;23334;54.316;10.182;2023-04-01T17:24:38;1.43;;;1.27;;
37477;SDS011;23334;54.316;10.182;2023-04-01T17:32:56;1.93;;;1.03;;
37477;SDS011;23334;54.316;10.182;2023-04-01T17:35:32;4.30;;;1.33;;
37477;SDS011;23334;54.316;10.182;2023-04-01T17:38:09;9.53;;;1.60;;
37477;SDS011;23334;54.316;10.182;2023-04-01T17:40:49;0.80;;;0.70;;
37477;SDS011;23334;54.316;10.182;2023-04-01T17:43:42;1.20;;;0.93;;
37477;SDS011;23334;54.316;10.182;2023-04-01T17:46:33;6.83;;;1.17;;
37477;SDS011;23334;54.316;10.182;2023-04-01T17:49:16;7.20;;;2.00;;
37477;SDS011;23334;54.316;10.182;2023-04-01T17:51:59;1.57;;;1.07;;
37477;SDS011;23334;54.316;10.182;2023-04-01T18:02:50;5.53;;;1.30;;
37477;SDS011;23334;54.316;10.182;2023-04-01T18:08:10;5.03;;;1.60;;
37477;SDS011;23334;54.316;10.182;2023-04-01T18:10:54;2.33;;;2.23;;
37477;SDS011;23334;54.316;10.182;2023-04-01T18:14:07;4.20;;;1.43;;
37477;SDS011;23334;54.316;10.182;2023-04-01T18:16:34;1.10;;;1.03;;
37477;SDS011;23334;54.316;10.182;2023-04-01T18:27:40;8.27;;;2.40;;
37477;SDS011;23334;54.316;10.182;2023-04-01T18:30:20;7.50;;;1.40;;
37477;SDS011;23334;54.316;10.182;2023-04-01T18:33:19;3.00;;;1.13;;
37477;SDS011;23334;54.316;10.182;2023-04-01T18:35:52;3.57;;;1.53;;
37477;SDS011;23334;54.316;10.182;2023-04-01T18:41:12;3.13;;;1.50;;
37477;SDS011;23334;54.316;10.182;2023-04-01T18:49:13;1.80;;;1.30;;
37477;SDS011;23334;54.316;10.182;2023-04-01T18:52:03;1.80;;;1.70;;
37477;SDS011;23334;54.316;10.182;2023-04-01T18:55:14;4.53;;;1.37;;
37477;SDS011;23334;54.316;10.182;2023-04-01T18:57:46;2.00;;;0.77;;
37477;SDS011;23334;54.316;10.182;2023-04-01T19:00:28;5.23;;;1.37;;
37477;SDS011;23334;54.316;10.182;2023-04-01T19:03:20;4.27;;;1.63;;
37477;SDS011;23334;54.316;10.182;2023-04-01T19:05:51;1.30;;;1.20;;
37477;SDS011;23334;54.316;10.182;2023-04-01T19:08:28;5.00;;;1.33;;
37477;SDS011;23334;54.316;10.182;2023-04-01T19:27:27;2.70;;;1.23;;
37477;SDS011;23334;54.316;10.182;2023-04-01T19:30:17;4.00;;;1.20;;
37477;SDS011;23334;54.316;10.182;2023-04-01T19:38:31;4.10;;;1.30;;
37477;SDS011;23334;54.316;10.182;2023-04-01T19:41:09;2.07;;;1.20;;
37477;SDS011;23334;54.316;10.182;2023-04-01T19:44:12;9.60;;;1.63;;
37477;SDS011;23334;54.316;10.182;2023-04-01T19:46:56;2.07;;;1.23;;
37477;SDS011;23334;54.316;10.182;2023-04-01T19:49:38;1.73;;;1.23;;
37477;SDS011;23334;54.316;10.182;2023-04-01T19:52:28;5.80;;;1.33;;
37477;SDS011;23334;54.316;10.182;2023-04-01T20:00:40;2.60;;;1.30;;
37477;SDS011;23334;54.316;10.182;2023-04-01T20:03:13;7.17;;;1.47;;
37477;SDS011;23334;54.316;10.182;2023-04-01T20:05:57;1.47;;;1.37;;
37477;SDS011;23334;54.316;10.182;2023-04-01T20:11:24;1.93;;;1.20;;
37477;SDS011;23334;54.316;10.182;2023-04-01T20:14:17;4.23;;;0.93;;
37477;SDS011;23334;54.316;10.182;2023-04-01T20:17:01;1.73;;;0.80;;
37477;SDS011;23334;54.316;10.182;2023-04-01T20:19:52;3.87;;;1.07;;
37477;SDS011;23334;54.316;10.182;2023-04-01T20:25:11;3.80;;;1.07;;
37477;SDS011;23334;54.316;10.182;2023-04-01T20:28:00;3.50;;;1.30;;
37477;SDS011;23334;54.316;10.182;2023-04-01T20:30:38;1.33;;;0.90;;
37477;SDS011;23334;54.316;10.182;2023-04-01T20:33:32;1.80;;;1.00;;
37477;SDS011;23334;54.316;10.182;2023-04-01T20:36:21;6.67;;;1.30;;
37477;SDS011;23334;54.316;10.182;2023-04-01T20:42:01;2.20;;;1.03;;
37477;SDS011;23334;54.316;10.182;2023-04-01T20:53:04;5.80;;;0.93;;
37477;SDS011;23334;54.316;10.182;2023-04-01T20:55:55;8.60;;;0.77;;
37477;SDS011;23334;54.316;10.182;2023-04-01T20:58:37;4.30;;;1.00;;
37477;SDS011;23334;54.316;10.182;2023-04-01T21:01:42;1.33;;;0.80;;
37477;SDS011;23334;54.316;10.182;2023-04-01T21:04:23;2.93;;;1.10;;
37477;SDS011;23334;54.316;10.182;2023-04-01T21:09:45;2.30;;;0.90;;
37477;SDS011;23334;54.316;10.182;2023-04-01T21:12:37;5.63;;;1.30;;
37477;SDS011;23334;54.316;10.182;2023-04-01T21:15:26;1.87;;;1.00;;
37477;SDS011;23334;54.316;10.182;2023-04-01T21:18:11;1.27;;;0.80;;
37477;SDS011;23334;54.316;10.182;2023-04-01T21:26:43;0.80;;;0.60;;
37477;SDS011;23334;54.316;10.182;2023-04-01T21:29:25;2.70;;;1.10;;
37477;SDS011;23334;54.316;10.182;2023-04-01T21:32:23;0.73;;;0.67;;
37477;SDS011;23334;54.316;10.182;2023-04-01T21:35:07;0.67;;;0.67;;
37477;SDS011;23334;54.316;10.182;2023-04-01T21:51:56;2.90;;;0.63;;
37477;SDS011;23334;54.316;10.182;2023-04-01T21:54:35;2.20;;;0.73;;
37477;SDS011;23334;54.316;10.182;2023-04-01T21:57:09;2.40;;;1.17;;
37477;SDS011;23334;54.316;10.182;2023-04-01T22:05:28;1.83;;;0.90;;
37477;SDS011;23334;54.316;10.182;2023-04-01T22:08:08;9.30;;;1.13;;
37477;SDS011;23334;54.316;10.182;2023-04-01T22:10:59;1.37;;;0.97;;
37477;SDS011;23334;54.316;10.182;2023-04-01T22:14:01;1.17;;;1.17;;
37477;SDS011;23334;54.316;10.182;2023-04-01T22:16:48;2.17;;;1.20;;
37477;SDS011;23334;54.316;10.182;2023-04-01T22:19:30;1.47;;;0.87;;
37477;SDS011;23334;54.316;10.182;2023-04-01T22:25:02;2.10;;;1.00;;
37477;SDS011;23334;54.316;10.182;2023-04-01T22:27:41;4.27;;;1.03;;
37477;SDS011;23334;54.316;10.182;2023-04-01T22:30:19;3.80;;;1.00;;
37477;SDS011;23334;54.316;10.182;2023-04-01T22:32:49;1.37;;;1.13;;
37477;SDS011;23334;54.316;10.182;2023-04-01T22:35:30;3.40;;;0.83;;
37477;SDS011;23334;54.316;10.182;2023-04-01T22:41:08;1.47;;;0.67;;
37477;SDS011;23334;54.316;10.182;2023-04-01T22:43:45;0.70;;;0.40;;
37477;SDS011;23334;54.316;10.182;2023-04-01T22:54:24;2.83;;;0.77;;
37477;SDS011;23334;54.316;10.182;2023-04-01T22:56:57;2.20;;;0.70;;
37477;SDS011;23334;54.316;10.182;2023-04-01T23:02:11;1.10;;;0.60;;
37477;SDS011;23334;54.316;10.182;2023-04-01T23:04:43;1.37;;;0.60;;